createdAt,value
2022-11-14T00:01:10.369Z,5.20
2022-11-14T00:03:38.108Z,5.10
2022-11-14T00:06:07.286Z,5.20
2022-11-14T00:08:35.718Z,5.20
2022-11-14T00:11:03.599Z,5.20
2022-11-14T00:13:31.321Z,5.30
2022-11-14T00:16:00.351Z,5.30
2022-11-14T00:18:28.381Z,5.40
2022-11-14T00:20:56.320Z,5.50
2022-11-14T00:23:24.022Z,5.60
2022-11-14T00:25:51.745Z,5.60
2022-11-14T00:28:19.441Z,5.60
2022-11-14T00:30:50.423Z,5.60
2022-11-14T00:33:21.129Z,5.60
2022-11-14T00:35:53.554Z,5.70
2022-11-14T00:38:21.427Z,5.70
2022-11-14T00:40:49.260Z,5.70
2022-11-14T00:43:16.957Z,5.60
2022-11-14T00:45:45.275Z,5.50
2022-11-14T00:48:12.981Z,5.50
2022-11-14T00:50:42.311Z,5.40
2022-11-14T00:53:10.247Z,5.40
2022-11-14T00:55:37.989Z,5.30
2022-11-14T00:58:05.704Z,5.20
2022-11-14T01:00:33.504Z,5.10
2022-11-14T01:03:01.442Z,5.00
2022-11-14T01:05:29.393Z,5.00
2022-11-14T01:07:58.455Z,5.00
2022-11-14T01:10:26.590Z,5.10
2022-11-14T01:12:54.332Z,5.20
2022-11-14T01:15:22.021Z,5.30
2022-11-14T01:17:49.717Z,5.40
2022-11-14T01:20:17.452Z,5.60
2022-11-14T01:22:45.188Z,5.60
2022-11-14T01:25:14.250Z,5.60
2022-11-14T01:27:41.984Z,5.70
2022-11-14T01:30:10.285Z,5.80
2022-11-14T01:32:38.451Z,5.90
2022-11-14T01:35:06.499Z,6.00
2022-11-14T01:37:34.259Z,5.90
2022-11-14T01:40:01.922Z,6.00
2022-11-14T01:42:30.953Z,6.10
2022-11-14T01:44:58.637Z,6.10
2022-11-14T01:47:30.563Z,6.20
2022-11-14T01:50:01.427Z,6.20
2022-11-14T01:52:32.580Z,6.20
2022-11-14T01:55:02.849Z,6.30
2022-11-14T01:57:36.244Z,6.30
2022-11-14T02:00:08.773Z,6.40
2022-11-14T02:02:37.492Z,6.40
2022-11-14T02:05:08.405Z,6.40
2022-11-14T02:07:39.900Z,6.40
2022-11-14T02:10:10.839Z,6.40
2022-11-14T02:12:40.047Z,6.40
2022-11-14T02:15:08.918Z,6.40
2022-11-14T02:17:36.968Z,6.40
2022-11-14T02:20:17.869Z,6.50
2022-11-14T02:22:45.619Z,6.40
2022-11-14T02:25:18.222Z,6.50
2022-11-14T02:27:45.975Z,6.60
2022-11-14T02:30:16.459Z,6.60
2022-11-14T02:33:09.405Z,6.50
2022-11-14T02:35:33.382Z,6.50
2022-11-14T02:38:01.096Z,6.50
2022-11-14T02:40:28.791Z,6.50
2022-11-14T02:42:56.551Z,6.50
2022-11-14T02:45:24.284Z,6.40
2022-11-14T02:47:52.027Z,6.40
2022-11-14T02:50:19.965Z,6.40
2022-11-14T02:52:49.197Z,6.50
2022-11-14T02:55:17.089Z,6.40
2022-11-14T02:57:44.802Z,6.40
2022-11-14T03:00:15.292Z,6.40
2022-11-14T03:02:43.327Z,6.50
2022-11-14T03:05:11.273Z,6.50
2022-11-14T03:07:39.012Z,6.50
2022-11-14T03:10:09.569Z,6.50
2022-11-14T03:12:37.354Z,6.40
2022-11-14T03:15:05.827Z,6.30
2022-11-14T03:17:34.346Z,6.30
2022-11-14T03:20:02.085Z,6.30
2022-11-14T03:22:30.043Z,6.30
2022-11-14T03:24:57.939Z,6.20
2022-11-14T03:27:26.998Z,6.20
2022-11-14T03:29:54.720Z,6.20
2022-11-14T03:32:22.458Z,6.20
2022-11-14T03:34:50.189Z,6.10
2022-11-14T03:37:17.928Z,6.10
2022-11-14T03:39:45.639Z,6.00
2022-11-14T03:42:13.346Z,6.00
2022-11-14T03:44:42.565Z,5.90
2022-11-14T03:47:10.307Z,5.90
2022-11-14T03:49:38.035Z,5.90
2022-11-14T03:52:06.003Z,5.90
2022-11-14T03:54:33.722Z,5.90
2022-11-14T03:57:01.450Z,5.80
2022-11-14T03:59:29.157Z,5.80
2022-11-14T04:01:58.236Z,5.70
2022-11-14T04:04:26.015Z,5.80
2022-11-14T04:06:53.814Z,5.80
2022-11-14T04:09:21.613Z,5.70
2022-11-14T04:11:49.318Z,5.70
2022-11-14T04:14:17.034Z,5.70
2022-11-14T04:16:44.755Z,5.70
2022-11-14T04:19:13.797Z,5.70
2022-11-14T04:21:41.593Z,5.70
2022-11-14T04:24:11.202Z,5.70
2022-11-14T04:26:39.171Z,5.70
2022-11-14T04:29:06.870Z,5.70
2022-11-14T04:31:34.626Z,5.70
2022-11-14T04:34:02.447Z,5.70
2022-11-14T04:36:31.538Z,5.70
2022-11-14T04:38:59.330Z,5.60
2022-11-14T04:41:27.068Z,5.60
2022-11-14T04:43:54.825Z,5.60
2022-11-14T04:46:22.713Z,5.60
2022-11-14T04:48:50.433Z,5.50
2022-11-14T04:51:18.209Z,5.40
2022-11-14T04:53:47.267Z,5.40
2022-11-14T04:56:15.046Z,5.40
2022-11-14T04:58:42.755Z,5.40
2022-11-14T05:01:11.062Z,5.40
2022-11-14T05:03:38.865Z,5.50
2022-11-14T05:06:06.926Z,5.50
2022-11-14T05:08:35.169Z,5.50
2022-11-14T05:11:04.239Z,5.50
2022-11-14T05:13:31.981Z,5.40
2022-11-14T05:16:00.655Z,5.30
2022-11-14T05:18:28.798Z,5.30
2022-11-14T05:20:59.459Z,5.30
2022-11-14T05:23:27.715Z,5.30
2022-11-14T05:26:05.243Z,5.20
2022-11-14T05:28:33.179Z,5.10
2022-11-14T05:31:04.707Z,5.20
2022-11-14T05:33:32.996Z,5.20
2022-11-14T05:36:04.558Z,5.10
2022-11-14T05:38:32.717Z,5.10
2022-11-14T05:41:00.748Z,5.00
2022-11-14T05:43:31.920Z,5.00
2022-11-14T05:46:00.776Z,4.90
2022-11-14T05:48:28.791Z,4.90
2022-11-14T05:50:57.343Z,4.90
2022-11-14T05:53:25.466Z,4.90
2022-11-14T05:55:53.325Z,4.90
2022-11-14T05:58:21.052Z,4.80
2022-11-14T06:00:54.150Z,4.90
2022-11-14T06:03:22.482Z,4.90
2022-11-14T06:05:50.436Z,5.00
2022-11-14T06:08:18.269Z,4.90
2022-11-14T06:10:46.195Z,4.90
2022-11-14T06:13:14.034Z,4.80
2022-11-14T06:15:42.170Z,4.80
2022-11-14T06:18:11.379Z,4.80
2022-11-14T06:20:39.293Z,4.70
2022-11-14T06:23:07.206Z,4.70
2022-11-14T06:25:35.219Z,4.80
2022-11-14T06:28:03.077Z,4.80
2022-11-14T06:30:31.038Z,4.80
2022-11-14T06:32:59.960Z,4.80
2022-11-14T06:35:29.248Z,4.70
2022-11-14T06:37:57.189Z,4.70
2022-11-14T06:40:25.187Z,4.70
2022-11-14T06:42:56.238Z,4.70
2022-11-14T06:45:24.223Z,4.80
2022-11-14T06:47:52.102Z,4.80
2022-11-14T06:50:19.959Z,4.90
2022-11-14T06:52:49.247Z,4.90
2022-11-14T06:55:22.356Z,4.90
2022-11-14T06:57:54.844Z,4.90
2022-11-14T07:00:22.911Z,4.90
2022-11-14T07:02:50.933Z,5.00
2022-11-14T07:05:18.808Z,5.00
2022-11-14T07:07:46.711Z,5.10
2022-11-14T07:10:16.020Z,5.20
2022-11-14T07:12:44.046Z,5.20
2022-11-14T07:15:12.104Z,5.30
2022-11-14T07:17:40.087Z,5.30
2022-11-14T07:20:09.308Z,5.40
2022-11-14T07:22:37.209Z,5.40
2022-11-14T07:25:05.520Z,5.50
2022-11-14T07:27:34.774Z,5.50
2022-11-14T07:30:02.702Z,5.50
2022-11-14T07:32:30.579Z,5.50
2022-11-14T07:35:02.293Z,5.60
2022-11-14T07:37:30.662Z,5.50
2022-11-14T07:39:58.610Z,5.50
2022-11-14T07:42:29.996Z,5.50
2022-11-14T07:44:59.233Z,5.60
2022-11-14T07:47:28.341Z,5.70
2022-11-14T07:49:56.206Z,5.80
2022-11-14T07:52:24.276Z,5.80
2022-11-14T07:54:52.201Z,5.80
2022-11-14T07:57:20.222Z,5.90
2022-11-14T07:59:49.250Z,5.90
2022-11-14T08:02:18.487Z,6.00
2022-11-14T08:04:46.378Z,6.10
2022-11-14T08:07:14.471Z,6.20
2022-11-14T08:09:42.385Z,6.30
2022-11-14T08:12:10.264Z,6.30
2022-11-14T08:14:38.123Z,6.40
2022-11-14T08:17:06.363Z,6.50
2022-11-14T08:19:35.562Z,6.60
2022-11-14T08:22:03.478Z,6.70
2022-11-14T08:24:31.419Z,6.70
2022-11-14T08:26:59.477Z,6.70
2022-11-14T08:29:27.381Z,6.60
2022-11-14T08:31:59.732Z,6.60
2022-11-14T08:34:29.267Z,6.70
2022-11-14T08:36:58.622Z,6.80
2022-11-14T08:39:26.483Z,6.80
2022-11-14T08:41:54.448Z,6.90
2022-11-14T08:44:22.607Z,7.10
2022-11-14T08:46:51.429Z,7.20
2022-11-14T08:49:19.470Z,7.20
2022-11-14T08:51:47.404Z,7.20
2022-11-14T08:54:16.599Z,7.30
2022-11-14T08:56:44.459Z,7.30
2022-11-14T08:59:12.392Z,7.60
2022-11-14T09:01:40.316Z,7.80
2022-11-14T09:04:09.131Z,8.10
2022-11-14T09:06:37.089Z,8.10
2022-11-14T09:09:05.115Z,8.10
2022-11-14T09:11:34.382Z,8.10
2022-11-14T09:14:02.942Z,8.10
2022-11-14T09:16:30.892Z,8.20
2022-11-14T09:18:58.762Z,8.10
2022-11-14T09:21:26.822Z,8.10
2022-11-14T09:24:00.408Z,8.30
2022-11-14T09:26:29.551Z,8.50
2022-11-14T09:28:58.886Z,8.60
2022-11-14T09:31:26.772Z,8.70
2022-11-14T09:33:54.976Z,8.80
2022-11-14T09:36:23.918Z,8.80
2022-11-14T09:38:52.907Z,9.00
2022-11-14T09:41:25.764Z,9.90
2022-11-14T09:44:25.527Z,11.30
2022-11-14T09:46:57.694Z,11.90
2022-11-14T09:49:30.925Z,12.30
2022-11-14T09:52:04.242Z,12.90
2022-11-14T09:54:42.051Z,13.60
2022-11-14T09:57:16.271Z,14.10
2022-11-14T09:59:45.726Z,15.10
2022-11-14T10:02:30.577Z,15.60
2022-11-14T10:05:12.187Z,15.30
2022-11-14T10:07:52.822Z,14.70
2022-11-14T10:10:38.352Z,15.10
2022-11-14T10:13:18.527Z,15.50
2022-11-14T10:15:55.008Z,15.30
2022-11-14T10:18:39.630Z,15.40
2022-11-14T10:21:22.879Z,15.40
2022-11-14T10:24:03.181Z,14.40
2022-11-14T10:26:33.115Z,13.50
2022-11-14T10:29:16.577Z,12.70
2022-11-14T10:31:55.530Z,12.00
2022-11-14T10:34:31.281Z,11.40
2022-11-14T10:37:04.224Z,11.10
2022-11-14T10:39:39.401Z,10.80
2022-11-14T10:42:14.500Z,10.80
2022-11-14T10:44:50.534Z,10.60
2022-11-14T10:47:24.273Z,10.50
2022-11-14T10:49:56.910Z,10.50
2022-11-14T10:52:37.972Z,10.50
2022-11-14T10:55:11.384Z,10.50
2022-11-14T10:57:39.268Z,10.60
2022-11-14T11:00:15.950Z,10.60
2022-11-14T11:02:53.708Z,10.80
2022-11-14T11:05:23.238Z,10.90
2022-11-14T11:08:41.544Z,11.00
2022-11-14T11:11:29.240Z,11.20
2022-11-14T11:13:59.189Z,11.30
2022-11-14T11:16:30.255Z,11.30
2022-11-14T11:19:16.111Z,11.30
2022-11-14T11:21:49.660Z,11.50
2022-11-14T11:24:33.072Z,11.40
2022-11-14T11:27:23.810Z,11.40
2022-11-14T11:30:04.785Z,11.60
2022-11-14T11:32:32.947Z,11.70
2022-11-14T11:35:04.757Z,11.80
2022-11-14T11:37:40.211Z,11.80
2022-11-14T11:40:16.920Z,11.90
2022-11-14T11:45:36.365Z,12.20
2022-11-14T11:48:14.907Z,12.20
2022-11-14T11:50:44.267Z,12.20
2022-11-14T11:53:19.995Z,12.20
2022-11-14T11:55:51.243Z,12.30
2022-11-14T11:58:23.767Z,12.40
2022-11-14T12:00:55.162Z,12.50
2022-11-14T12:03:25.507Z,12.60
2022-11-14T12:06:01.674Z,12.70
2022-11-14T12:08:37.071Z,12.80
2022-11-14T12:11:10.177Z,12.90
2022-11-14T12:14:03.064Z,12.90
2022-11-14T12:16:56.151Z,12.90
2022-11-14T12:19:59.247Z,13.00
2022-11-14T12:23:07.944Z,12.90
2022-11-14T12:26:07.626Z,12.80
2022-11-14T12:29:08.896Z,12.70
2022-11-14T12:31:39.405Z,12.70
2022-11-14T12:34:20.684Z,12.70
2022-11-14T12:36:48.872Z,12.80
2022-11-14T12:39:26.534Z,12.90
2022-11-14T12:42:03.499Z,13.00
2022-11-14T12:44:36.935Z,13.00
2022-11-14T12:47:15.336Z,13.10
2022-11-14T12:50:14.296Z,13.10
2022-11-14T12:52:45.038Z,13.20
2022-11-14T12:55:46.248Z,13.20
2022-11-14T12:58:22.457Z,13.20
2022-11-14T13:01:09.672Z,13.20
2022-11-14T13:03:54.473Z,13.10
2022-11-14T13:06:26.654Z,13.00
2022-11-14T13:09:27.416Z,13.10
2022-11-14T13:12:12.745Z,13.00
2022-11-14T13:15:10.350Z,13.00
2022-11-14T13:17:56.120Z,13.00
2022-11-14T13:20:46.535Z,13.00
2022-11-14T13:23:59.555Z,12.90
2022-11-14T13:26:47.529Z,12.90
2022-11-14T13:29:57.802Z,12.80
2022-11-14T13:32:55.425Z,12.70
2022-11-14T13:35:42.999Z,12.60
2022-11-14T13:38:45.949Z,12.50
2022-11-14T13:41:47.916Z,12.50
2022-11-14T13:44:44.801Z,12.40
2022-11-14T13:47:30.308Z,12.30
2022-11-14T13:50:04.793Z,12.20
2022-11-14T13:52:35.610Z,12.10
2022-11-14T13:55:04.037Z,11.90
2022-11-14T13:57:42.907Z,11.80
2022-11-14T14:00:19.609Z,11.80
2022-11-14T14:03:10.801Z,11.70
2022-11-14T14:06:05.133Z,11.70
2022-11-14T14:08:51.919Z,11.60
2022-11-14T14:11:41.682Z,11.50
2022-11-14T14:14:24.241Z,11.60
2022-11-14T14:16:57.736Z,11.50
2022-11-14T14:19:38.671Z,11.30
2022-11-14T14:22:16.091Z,11.20
2022-11-14T14:24:55.943Z,11.00
2022-11-14T14:27:30.296Z,11.00
2022-11-14T14:30:08.846Z,10.90
2022-11-14T14:32:36.772Z,10.80
2022-11-14T14:35:22.917Z,10.80
2022-11-14T14:37:53.288Z,10.70
2022-11-14T14:40:26.543Z,10.60
2022-11-14T14:42:57.383Z,10.50
2022-11-14T14:45:28.270Z,10.40
2022-11-14T14:48:03.382Z,10.20
2022-11-14T14:50:38.269Z,10.10
2022-11-14T14:53:08.105Z,10.00
2022-11-14T14:55:37.128Z,9.90
2022-11-14T14:58:22.023Z,9.80
2022-11-14T15:00:54.070Z,9.70
2022-11-14T15:03:23.817Z,9.70
2022-11-14T15:05:59.166Z,9.70
2022-11-14T15:08:31.190Z,9.50
2022-11-14T15:11:01.121Z,9.40
2022-11-14T15:13:30.966Z,9.20
2022-11-14T15:15:59.172Z,9.00
2022-11-14T15:18:29.539Z,8.90
2022-11-14T15:21:17.174Z,8.90
2022-11-14T15:23:46.494Z,8.70
2022-11-14T15:26:17.249Z,8.50
2022-11-14T15:28:45.690Z,8.40
2022-11-14T15:31:21.555Z,8.30
2022-11-14T15:34:02.732Z,8.10
2022-11-14T15:36:30.804Z,8.10
2022-11-14T15:39:05.848Z,8.00
2022-11-14T15:41:34.677Z,7.90
2022-11-14T15:44:05.699Z,7.80
2022-11-14T15:46:47.247Z,7.60
2022-11-14T15:49:24.022Z,7.50
2022-11-14T15:51:55.468Z,7.40
2022-11-14T15:54:27.410Z,7.40
2022-11-14T15:56:56.928Z,7.40
2022-11-14T15:59:25.897Z,7.30
2022-11-14T16:01:59.110Z,7.30
2022-11-14T16:04:32.010Z,7.20
2022-11-14T16:07:00.357Z,7.20
2022-11-14T16:09:29.633Z,7.10
2022-11-14T16:11:57.497Z,7.10
2022-11-14T16:14:25.355Z,7.00
2022-11-14T16:16:53.304Z,7.00
2022-11-14T16:19:21.963Z,7.00
2022-11-14T16:21:50.271Z,7.00
2022-11-14T16:24:20.076Z,7.10
2022-11-14T16:26:49.789Z,7.10
2022-11-14T16:29:17.639Z,7.00
2022-11-14T16:31:45.432Z,7.00
2022-11-14T16:34:19.264Z,6.90
2022-11-14T16:36:48.558Z,6.90
2022-11-14T16:39:16.659Z,6.90
2022-11-14T16:41:44.455Z,7.00
2022-11-14T16:44:17.220Z,6.90
2022-11-14T16:46:45.343Z,6.90
2022-11-14T16:49:15.253Z,6.90
2022-11-14T16:51:48.439Z,6.90
2022-11-14T16:54:17.984Z,6.80
2022-11-14T16:56:45.741Z,6.70
2022-11-14T16:59:15.304Z,6.60
2022-11-14T17:01:43.414Z,6.60
2022-11-14T17:04:11.195Z,6.60
2022-11-14T17:06:38.950Z,6.50
2022-11-14T17:09:06.658Z,6.50
2022-11-14T17:11:34.598Z,6.50
2022-11-14T17:14:02.338Z,6.50
2022-11-14T17:16:31.412Z,6.50
2022-11-14T17:18:59.187Z,6.50
2022-11-14T17:21:28.044Z,6.40
2022-11-14T17:23:56.494Z,6.30
2022-11-14T17:26:24.768Z,6.10
2022-11-14T17:28:52.518Z,6.10
2022-11-14T17:31:20.393Z,6.20
2022-11-14T17:33:53.854Z,6.10
2022-11-14T17:36:22.651Z,6.20
2022-11-14T17:38:50.418Z,6.00
2022-11-14T17:41:19.006Z,5.90
2022-11-14T17:43:47.133Z,5.80
2022-11-14T17:46:16.339Z,5.80
2022-11-14T17:48:44.549Z,5.80
2022-11-14T17:51:15.604Z,5.70
2022-11-14T17:53:44.006Z,5.70
2022-11-14T17:56:15.350Z,5.70
2022-11-14T17:58:43.167Z,5.70
2022-11-14T18:01:11.608Z,5.70
2022-11-14T18:03:39.522Z,5.80
2022-11-14T18:06:09.080Z,5.70
2022-11-14T18:08:38.631Z,5.70
2022-11-14T18:11:09.910Z,5.70
2022-11-14T18:13:38.902Z,5.70
2022-11-14T18:16:09.142Z,5.80
2022-11-14T18:18:38.126Z,5.70
2022-11-14T18:21:10.116Z,5.70
2022-11-14T18:23:39.647Z,5.70
2022-11-14T18:26:11.328Z,5.70
2022-11-14T18:28:39.096Z,5.60
2022-11-14T18:31:08.376Z,5.40
2022-11-14T18:33:36.441Z,5.30
2022-11-14T18:36:06.529Z,5.20
2022-11-14T18:38:34.324Z,5.10
2022-11-14T18:41:07.481Z,5.10
2022-11-14T18:43:35.220Z,5.00
2022-11-14T18:46:08.092Z,5.00
2022-11-14T18:48:36.473Z,4.90
2022-11-14T18:51:05.135Z,5.00
2022-11-14T18:53:33.764Z,5.00
2022-11-14T18:56:05.984Z,5.00
2022-11-14T18:58:35.965Z,5.00
2022-11-14T19:01:10.933Z,5.00
2022-11-14T19:03:38.736Z,5.00
2022-11-14T19:06:08.279Z,5.00
2022-11-14T19:08:36.053Z,4.90
2022-11-14T19:11:07.400Z,4.90
2022-11-14T19:13:35.160Z,5.00
2022-11-14T19:16:03.649Z,5.00
2022-11-14T19:18:32.248Z,4.90
2022-11-14T19:21:01.680Z,4.80
2022-11-14T19:23:30.129Z,4.80
2022-11-14T19:26:00.538Z,4.90
2022-11-14T19:28:30.282Z,5.00
2022-11-14T19:31:02.878Z,5.10
2022-11-14T19:33:31.009Z,5.00
2022-11-14T19:35:59.494Z,4.90
2022-11-14T19:38:27.261Z,4.90
2022-11-14T19:40:55.033Z,4.80
2022-11-14T19:43:25.329Z,4.70
2022-11-14T19:45:56.313Z,4.60
2022-11-14T19:48:24.605Z,4.80
2022-11-14T19:51:00.172Z,4.70
2022-11-14T19:53:28.460Z,4.70
2022-11-14T19:56:00.680Z,4.60
2022-11-14T19:58:28.430Z,4.60
2022-11-14T20:01:03.202Z,4.50
2022-11-14T20:03:31.363Z,4.60
2022-11-14T20:05:59.474Z,4.60
2022-11-14T20:08:27.339Z,4.60
2022-11-14T20:10:59.073Z,4.50
2022-11-14T20:13:27.115Z,4.60
2022-11-14T20:15:54.863Z,4.50
2022-11-14T20:18:23.894Z,4.50
2022-11-14T20:20:51.700Z,4.40
2022-11-14T20:23:19.714Z,4.40
2022-11-14T20:25:52.057Z,4.50
2022-11-14T20:28:19.844Z,4.50
2022-11-14T20:30:47.617Z,4.50
2022-11-14T20:33:15.412Z,4.50
2022-11-14T20:35:45.045Z,4.50
2022-11-14T20:38:12.914Z,4.50
2022-11-14T20:40:40.713Z,4.50
2022-11-14T20:43:09.053Z,4.50
2022-11-14T20:45:36.762Z,4.50
2022-11-14T20:48:05.495Z,4.60
2022-11-14T20:50:33.235Z,4.50
2022-11-14T20:53:02.269Z,4.50
2022-11-14T20:55:30.044Z,4.50
2022-11-14T20:57:57.787Z,4.50
2022-11-14T21:00:25.562Z,4.50
2022-11-14T21:02:53.681Z,4.40
2022-11-14T21:05:21.402Z,4.40
2022-11-14T21:07:49.224Z,4.20
2022-11-14T21:10:36.292Z,4.30
2022-11-14T21:13:26.422Z,4.30
2022-11-14T21:15:56.806Z,4.40
2022-11-14T21:18:24.563Z,4.40
2022-11-14T21:21:00.108Z,4.50
2022-11-14T21:23:27.860Z,4.40
2022-11-14T21:26:04.417Z,4.30
2022-11-14T21:28:32.684Z,4.10
2022-11-14T21:31:01.065Z,4.10
2022-11-14T21:33:31.419Z,3.90
2022-11-14T21:36:16.303Z,3.90
2022-11-14T21:38:48.139Z,3.80
2022-11-14T21:41:19.036Z,3.80
2022-11-14T21:43:47.724Z,3.70
2022-11-14T21:46:17.584Z,3.60
2022-11-14T21:48:46.711Z,3.50
2022-11-14T21:51:16.334Z,3.40
2022-11-14T21:53:45.644Z,3.30
2022-11-14T21:56:15.008Z,3.50
2022-11-14T21:58:44.721Z,3.50
2022-11-14T22:01:14.648Z,3.40
2022-11-14T22:04:00.685Z,3.30
2022-11-14T22:06:29.136Z,3.20
2022-11-14T22:08:56.917Z,3.10
2022-11-14T22:11:25.020Z,3.10
2022-11-14T22:13:54.144Z,3.20
2022-11-14T22:16:22.034Z,3.10
2022-11-14T22:18:52.253Z,3.20
2022-11-14T22:21:19.970Z,3.40
2022-11-14T22:23:47.756Z,3.40
2022-11-14T22:26:15.761Z,3.40
2022-11-14T22:28:43.488Z,3.30
2022-11-14T22:31:14.216Z,3.20
2022-11-14T22:33:46.796Z,3.20
2022-11-14T22:36:16.442Z,3.10
2022-11-14T22:38:45.101Z,3.10
2022-11-14T22:41:17.278Z,3.00
2022-11-14T22:43:45.673Z,3.10
2022-11-14T22:46:17.119Z,3.10
2022-11-14T22:48:46.134Z,3.10
2022-11-14T22:51:15.895Z,3.20
2022-11-14T22:53:46.265Z,3.10
2022-11-14T22:56:13.948Z,3.10
2022-11-14T22:58:42.964Z,3.10
2022-11-14T23:01:14.465Z,3.10
2022-11-14T23:03:42.276Z,3.00
2022-11-14T23:06:10.928Z,3.00
2022-11-14T23:08:38.877Z,2.90
2022-11-14T23:11:09.392Z,2.80
2022-11-14T23:13:41.264Z,2.70
2022-11-14T23:16:09.413Z,2.80
2022-11-14T23:18:39.179Z,2.70
2022-11-14T23:21:08.705Z,2.70
2022-11-14T23:23:36.575Z,2.80
2022-11-14T23:26:05.188Z,2.90
2022-11-14T23:28:33.395Z,2.80
2022-11-14T23:31:02.101Z,2.80
2022-11-14T23:33:30.480Z,2.90
2022-11-14T23:35:59.863Z,2.80
2022-11-14T23:38:28.004Z,2.80
2022-11-14T23:40:57.036Z,2.70
2022-11-14T23:43:25.034Z,2.80
2022-11-14T23:45:52.762Z,2.80
2022-11-14T23:48:21.947Z,2.80
2022-11-14T23:50:51.222Z,2.70
2022-11-14T23:53:20.679Z,2.80
2022-11-14T23:55:53.076Z,2.80
2022-11-14T23:58:21.298Z,2.80
